Terminal Aerodrome Forecast
Issued by NWS Twin Cities, MN

Home | Current Version | Previous Version | Text Only | Print | Product List | Glossary Off
Versions: 1 2 3 4 5 6 7 8 9 10 11 12 13 14 15 16 17 18 19 20 21 22 23 24 25 26

000
FTUS43 KMPX 300800 AAA
TAFMSP
TAF AMD
KMSP 300851Z 3009/3112 12004KT P6SM SCT050 BKN090
     FM301400 11004KT P6SM VCSH SCT035 OVC050
     FM301800 36009KT P6SM SCT025 BKN035 OVC050
     FM302200 34014G20KT P6SM BKN025
     FM310200 34018G27KT P6SM BKN035=

USA.gov is the U.S. government's official web portal to all federal, state and local government web resources and services.